Time;durP1;ratioP1;P1;durP2;ratioP2;P2;SDS_P1;SDS_P2;PMS_P1;PMS_P2;Temp;Humidity;BMP_temperature;BMP_pressure;BME280_temperature;BME280_humidity;BME280_pressure;Samples;Min_cycle;Max_cycle;Signal;HPM_P1;HPM_P2
2023/09/17 00:01:10;;;;;;;4.15;3.63;;;20.50;64.90;;;;;;5065209;28;20059;-61
2023/09/17 00:03:37;;;;;;;3.83;3.42;;;20.50;65.00;;;;;;5063979;28;20083;-61
2023/09/17 00:06:03;;;;;;;5.55;3.88;;;20.50;65.00;;;;;;5059012;28;20028;-60
2023/09/17 00:08:29;;;;;;;4.65;3.67;;;20.50;65.00;;;;;;5064072;28;20035;-61
2023/09/17 00:10:55;;;;;;;4.95;4.22;;;20.50;65.20;;;;;;5059419;28;20025;-61
2023/09/17 00:13:21;;;;;;;6.30;4.18;;;20.50;65.10;;;;;;5066235;28;20505;-60
2023/09/17 00:15:46;;;;;;;5.03;3.72;;;20.60;65.30;;;;;;5071527;28;20028;-60
2023/09/17 00:18:12;;;;;;;8.23;3.53;;;20.60;65.40;;;;;;5068789;28;20073;-60
2023/09/17 00:20:38;;;;;;;5.20;3.85;;;20.60;65.50;;;;;;5062319;28;20577;-61
2023/09/17 00:23:04;;;;;;;5.15;3.90;;;20.60;65.60;;;;;;5067745;28;20030;-61
2023/09/17 00:25:30;;;;;;;6.35;3.88;;;20.60;65.60;;;;;;5064459;28;20042;-60
2023/09/17 00:27:55;;;;;;;11.07;3.88;;;20.60;65.60;;;;;;5070397;28;20478;-61
2023/09/17 00:30:21;;;;;;;6.30;3.70;;;20.60;65.50;;;;;;5061755;28;20033;-60
2023/09/17 00:32:47;;;;;;;6.93;4.10;;;20.60;66.10;;;;;;5067384;28;20066;-60
2023/09/17 00:35:13;;;;;;;9.70;4.10;;;20.60;65.50;;;;;;5066983;28;20082;-60
2023/09/17 00:37:40;;;;;;;4.85;3.90;;;20.60;65.60;;;;;;5072833;28;20028;-60
2023/09/17 00:40:09;;;;;;;7.00;3.97;;;20.60;65.60;;;;;;5072171;28;20048;-61
2023/09/17 00:42:36;;;;;;;4.18;3.70;;;20.60;65.60;;;;;;5064963;28;20039;-61
2023/09/17 00:45:02;;;;;;;6.32;4.05;;;20.60;65.60;;;;;;5062125;28;20396;-62
2023/09/17 00:47:29;;;;;;;4.07;3.67;;;20.60;65.60;;;;;;5058945;28;20013;-61
2023/09/17 00:49:55;;;;;;;3.83;3.50;;;20.50;65.60;;;;;;5067387;28;20032;-62
2023/09/17 00:52:21;;;;;;;5.53;3.80;;;20.50;65.70;;;;;;5062049;28;20048;-60
2023/09/17 00:54:49;;;;;;;4.30;3.90;;;20.50;65.80;;;;;;5063994;28;20029;-60
2023/09/17 00:57:16;;;;;;;5.25;3.65;;;20.50;65.90;;;;;;5061861;28;20483;-61
2023/09/17 00:59:47;;;;;;;4.30;3.78;;;20.50;65.90;;;;;;5060982;28;20021;-61
2023/09/17 01:02:16;;;;;;;6.57;3.97;;;20.50;66.20;;;;;;5065536;28;20024;-60
2023/09/17 01:04:46;;;;;;;4.40;4.00;;;20.50;66.00;;;;;;5058136;28;20029;-60
2023/09/17 01:07:13;;;;;;;3.65;3.22;;;20.50;66.20;;;;;;5066406;28;20069;-61
2023/09/17 01:09:39;;;;;;;5.80;3.70;;;20.40;66.20;;;;;;5056661;28;20476;-61
2023/09/17 01:12:06;;;;;;;4.32;3.85;;;20.40;66.40;;;;;;5065505;28;20033;-60
2023/09/17 01:14:34;;;;;;;5.20;4.22;;;20.40;66.30;;;;;;5072039;28;20028;-61
2023/09/17 01:17:04;;;;;;;5.93;3.75;;;20.40;66.40;;;;;;5059229;28;20020;-61
2023/09/17 01:19:32;;;;;;;7.00;4.30;;;20.40;66.30;;;;;;5065901;28;20020;-60
2023/09/17 01:22:10;;;;;;;6.95;3.80;;;20.40;66.30;;;;;;5064723;28;20498;-61
2023/09/17 01:24:43;;;;;;;5.15;3.75;;;20.40;66.70;;;;;;5067920;28;20020;-62
2023/09/17 01:27:10;;;;;;;6.40;4.28;;;20.40;66.60;;;;;;5069142;28;20479;-61
2023/09/17 01:29:41;;;;;;;6.22;3.63;;;20.40;66.30;;;;;;5059094;28;20044;-60
2023/09/17 01:32:08;;;;;;;4.68;3.47;;;20.40;66.70;;;;;;5065964;28;20051;-61
2023/09/17 01:34:37;;;;;;;3.92;3.45;;;20.30;67.10;;;;;;5069345;28;20077;-61
2023/09/17 01:37:08;;;;;;;9.57;3.38;;;20.30;66.40;;;;;;5056312;28;20033;-60
2023/09/17 01:39:41;;;;;;;4.85;3.38;;;20.30;66.60;;;;;;5060509;28;20046;-61
2023/09/17 01:42:08;;;;;;;4.40;3.38;;;20.30;66.80;;;;;;5055934;28;20036;-60
2023/09/17 01:44:35;;;;;;;4.03;3.22;;;20.30;66.40;;;;;;5062605;28;20028;-60
2023/09/17 01:47:03;;;;;;;5.60;3.50;;;20.30;66.60;;;;;;5067739;28;20048;-61
2023/09/17 01:49:32;;;;;;;4.90;3.90;;;20.20;66.70;;;;;;5063683;28;20048;-61
2023/09/17 01:51:57;;;;;;;4.60;3.75;;;20.20;66.90;;;;;;5063999;28;20060;-61
2023/09/17 01:54:24;;;;;;;4.43;3.70;;;20.20;66.90;;;;;;5064677;28;20058;-61
2023/09/17 01:56:49;;;;;;;4.57;3.67;;;20.20;66.90;;;;;;5071844;28;20435;-61
2023/09/17 01:59:15;;;;;;;5.25;4.07;;;20.20;66.90;;;;;;5065078;28;20031;-60
2023/09/17 02:01:45;;;;;;;5.30;3.45;;;20.20;67.00;;;;;;5063395;28;20016;-62
2023/09/17 02:04:10;;;;;;;4.50;3.40;;;20.10;67.00;;;;;;5064292;28;20131;-60
2023/09/17 02:06:36;;;;;;;5.72;3.30;;;20.10;67.10;;;;;;5066370;28;20492;-61
2023/09/17 02:09:08;;;;;;;5.28;3.85;;;20.10;67.10;;;;;;5056987;28;20162;-60
2023/09/17 02:11:34;;;;;;;5.32;4.28;;;20.10;67.20;;;;;;5061048;28;20048;-61
2023/09/17 02:13:59;;;;;;;4.03;3.63;;;20.10;67.30;;;;;;5060029;28;20293;-60
2023/09/17 02:16:25;;;;;;;4.43;3.97;;;20.10;67.40;;;;;;5057066;28;20575;-60
2023/09/17 02:18:51;;;;;;;7.22;4.03;;;20.10;67.40;;;;;;5066656;28;20070;-60
2023/09/17 02:21:17;;;;;;;4.90;3.95;;;20.10;67.50;;;;;;5064072;28;20028;-61
2023/09/17 02:23:44;;;;;;;5.53;4.05;;;20.10;67.50;;;;;;5062331;28;20028;-60
2023/09/17 02:26:10;;;;;;;3.90;3.22;;;20.10;67.50;;;;;;5061604;28;20490;-61
2023/09/17 02:28:35;;;;;;;3.75;3.38;;;20.10;67.60;;;;;;5060206;28;20114;-60
2023/09/17 02:31:02;;;;;;;4.55;3.67;;;20.10;67.60;;;;;;5064461;28;20055;-61
2023/09/17 02:33:31;;;;;;;5.32;3.47;;;20.10;67.60;;;;;;5064143;28;20029;-61
2023/09/17 02:35:56;;;;;;;7.60;3.50;;;20.10;67.80;;;;;;5060631;28;20050;-60
2023/09/17 02:38:22;;;;;;;8.73;4.18;;;20.10;68.20;;;;;;5063751;28;20048;-60
2023/09/17 02:40:48;;;;;;;4.28;3.88;;;20.00;67.80;;;;;;5068394;28;20509;-60
2023/09/17 02:43:14;;;;;;;5.40;3.78;;;20.00;68.30;;;;;;5062173;28;20075;-60
2023/09/17 02:45:39;;;;;;;4.55;3.60;;;20.00;68.00;;;;;;4991753;28;20025;-61
2023/09/17 02:48:05;;;;;;;5.32;3.90;;;20.10;68.00;;;;;;5062043;28;20029;-61
2023/09/17 02:50:31;;;;;;;7.57;3.90;;;20.00;68.00;;;;;;5054161;28;20028;-61
2023/09/17 02:52:57;;;;;;;4.85;3.67;;;20.00;67.90;;;;;;5063214;28;20111;-61
2023/09/17 02:55:23;;;;;;;4.78;3.47;;;20.00;68.10;;;;;;5064840;28;20020;-61
2023/09/17 02:57:49;;;;;;;5.63;3.58;;;20.00;68.00;;;;;;5062844;28;20063;-61
2023/09/17 03:00:17;;;;;;;7.13;3.92;;;20.00;67.80;;;;;;5066522;28;20064;-60
2023/09/17 03:02:47;;;;;;;7.20;4.20;;;20.00;67.80;;;;;;5066139;28;20040;-61
2023/09/17 03:05:14;;;;;;;8.93;3.97;;;20.00;67.80;;;;;;5061552;28;20487;-61
2023/09/17 03:07:40;;;;;;;4.18;3.78;;;20.00;67.90;;;;;;5066163;28;20041;-60
2023/09/17 03:10:11;;;;;;;7.85;4.10;;;20.00;67.80;;;;;;5066011;28;20029;-61
2023/09/17 03:12:38;;;;;;;5.40;3.60;;;19.90;67.70;;;;;;5064751;28;20060;-62
2023/09/17 03:15:05;;;;;;;4.53;3.38;;;19.90;67.70;;;;;;5061100;28;20056;-61
2023/09/17 03:17:32;;;;;;;5.65;3.70;;;19.90;67.70;;;;;;5060010;28;20433;-61
2023/09/17 03:19:58;;;;;;;4.07;3.67;;;19.90;67.70;;;;;;5067287;28;20036;-61
2023/09/17 03:22:23;;;;;;;5.82;3.80;;;19.80;67.70;;;;;;5069816;28;20410;-61
2023/09/17 03:24:50;;;;;;;5.82;3.70;;;19.80;67.80;;;;;;5059999;28;20083;-61
2023/09/17 03:27:16;;;;;;;4.18;3.78;;;19.70;67.90;;;;;;5060183;28;20032;-62
2023/09/17 03:29:41;;;;;;;7.03;3.35;;;19.70;68.00;;;;;;5065213;28;20029;-60
2023/09/17 03:32:07;;;;;;;5.47;4.05;;;19.60;68.00;;;;;;5061557;28;20407;-61
2023/09/17 03:34:33;;;;;;;4.13;3.53;;;19.60;68.10;;;;;;5064792;28;20112;-60
2023/09/17 03:36:59;;;;;;;5.93;4.43;;;19.60;68.10;;;;;;5064746;28;20028;-63
2023/09/17 03:39:25;;;;;;;9.48;7.22;;;19.60;68.30;;;;;;5056091;28;20032;-59
2023/09/17 03:41:50;;;;;;;7.22;6.22;;;19.50;68.30;;;;;;5071140;28;20028;-61
2023/09/17 03:44:16;;;;;;;8.60;6.10;;;19.50;68.40;;;;;;5062286;28;20031;-62
2023/09/17 03:46:42;;;;;;;7.68;4.80;;;19.50;68.50;;;;;;4976617;28;20029;-62
2023/09/17 03:49:08;;;;;;;5.15;3.83;;;19.40;68.50;;;;;;5065740;28;20040;-61
2023/09/17 03:51:34;;;;;;;4.97;4.00;;;19.40;68.40;;;;;;5061674;28;20025;-60
2023/09/17 03:54:00;;;;;;;4.50;3.95;;;19.40;68.60;;;;;;5062773;28;20025;-61
2023/09/17 03:56:26;;;;;;;5.18;3.60;;;19.40;68.50;;;;;;5060367;28;20115;-62
2023/09/17 03:58:53;;;;;;;4.40;3.92;;;19.40;68.60;;;;;;5059832;28;20476;-60
2023/09/17 04:01:20;;;;;;;5.63;4.28;;;19.40;68.60;;;;;;5063847;28;20031;-61
2023/09/17 04:03:45;;;;;;;6.53;4.30;;;19.40;68.70;;;;;;5064829;28;20127;-61
2023/09/17 04:06:11;;;;;;;6.20;4.05;;;19.30;68.70;;;;;;5064445;28;20542;-61
2023/09/17 04:08:37;;;;;;;5.75;4.28;;;19.30;68.80;;;;;;5069941;28;20108;-61
2023/09/17 04:11:04;;;;;;;4.43;3.75;;;19.30;68.80;;;;;;5067240;28;20056;-62
2023/09/17 04:13:30;;;;;;;6.47;3.72;;;19.30;69.00;;;;;;5058327;28;20387;-61
2023/09/17 04:15:55;;;;;;;5.55;3.95;;;19.30;68.90;;;;;;5070667;28;20021;-60
2023/09/17 04:18:21;;;;;;;4.65;4.20;;;19.20;69.00;;;;;;5063248;28;20029;-61
2023/09/17 04:20:47;;;;;;;8.68;4.15;;;19.20;69.00;;;;;;5062208;28;20027;-61
2023/09/17 04:23:13;;;;;;;6.28;3.85;;;19.20;69.20;;;;;;5058955;28;20048;-60
2023/09/17 04:25:39;;;;;;;5.53;4.18;;;19.20;69.10;;;;;;5075389;28;20052;-61
2023/09/17 04:28:06;;;;;;;6.13;4.10;;;19.20;69.00;;;;;;5053214;28;20079;-60
2023/09/17 04:30:31;;;;;;;9.15;3.67;;;19.10;68.80;;;;;;5066632;28;20025;-60
2023/09/17 04:32:57;;;;;;;4.22;3.60;;;19.10;68.60;;;;;;5065473;28;20105;-61
2023/09/17 04:35:23;;;;;;;5.00;4.00;;;19.00;68.60;;;;;;5066319;28;20024;-61
2023/09/17 04:37:49;;;;;;;6.03;3.88;;;19.00;68.60;;;;;;5067014;28;20033;-62
2023/09/17 04:40:16;;;;;;;5.10;3.97;;;18.90;68.70;;;;;;5065005;28;20035;-60
2023/09/17 04:42:44;;;;;;;9.52;4.07;;;18.90;68.80;;;;;;5072732;28;20552;-61
2023/09/17 04:45:11;;;;;;;4.25;3.85;;;18.90;69.00;;;;;;5056901;28;20785;-61
2023/09/17 04:47:37;;;;;;;5.18;4.20;;;18.80;69.10;;;;;;5057867;28;20021;-60
2023/09/17 04:50:08;;;;;;;6.63;4.32;;;18.80;69.20;;;;;;5057988;28;20184;-61
2023/09/17 04:52:36;;;;;;;6.28;4.13;;;18.80;69.30;;;;;;5060949;28;20044;-61
2023/09/17 04:55:03;;;;;;;4.95;3.72;;;18.80;69.30;;;;;;5057550;28;20017;-61
2023/09/17 04:57:29;;;;;;;5.57;4.07;;;18.70;69.20;;;;;;5067248;28;20020;-60
2023/09/17 04:59:54;;;;;;;6.85;4.10;;;18.70;69.30;;;;;;5064771;28;20028;-60
2023/09/17 05:02:21;;;;;;;5.45;3.97;;;18.70;69.30;;;;;;5062648;28;20035;-61
2023/09/17 05:04:47;;;;;;;5.03;4.05;;;18.60;69.40;;;;;;5057031;28;20025;-61
2023/09/17 05:07:14;;;;;;;4.88;4.10;;;18.60;69.60;;;;;;5062638;28;20391;-60
2023/09/17 05:09:40;;;;;;;4.82;4.18;;;18.60;69.60;;;;;;5065008;28;20039;-60
2023/09/17 05:12:08;;;;;;;5.00;4.20;;;18.60;69.70;;;;;;5066014;28;20056;-62
2023/09/17 05:14:33;;;;;;;5.07;4.07;;;18.60;69.80;;;;;;5066977;28;20028;-62
2023/09/17 05:16:59;;;;;;;5.85;4.40;;;18.50;69.70;;;;;;5058429;28;20024;-60
2023/09/17 05:19:25;;;;;;;5.07;4.10;;;18.50;69.70;;;;;;5060243;28;20032;-62
2023/09/17 05:21:51;;;;;;;5.00;4.32;;;18.50;69.70;;;;;;5061564;28;20367;-61
2023/09/17 05:24:17;;;;;;;10.52;3.95;;;18.50;69.70;;;;;;5060299;28;20024;-62
2023/09/17 05:26:43;;;;;;;4.88;4.07;;;18.50;69.70;;;;;;5066005;28;20036;-61
2023/09/17 05:29:10;;;;;;;4.50;4.10;;;18.50;69.70;;;;;;5065169;28;20036;-60
2023/09/17 05:31:36;;;;;;;4.97;3.97;;;18.60;69.80;;;;;;5062695;28;20016;-61
2023/09/17 05:34:02;;;;;;;6.55;3.65;;;18.50;69.70;;;;;;5056253;28;20037;-61
2023/09/17 05:36:28;;;;;;;6.38;4.80;;;18.60;69.70;;;;;;5063876;28;20475;-63
2023/09/17 05:38:55;;;;;;;4.07;3.63;;;18.60;69.70;;;;;;5068803;28;20083;-61
2023/09/17 05:41:20;;;;;;;9.10;4.30;;;18.60;69.60;;;;;;5053232;28;20025;-61
2023/09/17 05:43:46;;;;;;;4.30;3.90;;;18.60;69.60;;;;;;5066387;28;20028;-59
2023/09/17 05:46:11;;;;;;;6.13;4.03;;;18.60;69.80;;;;;;4982151;28;20031;-61
2023/09/17 05:48:39;;;;;;;6.28;3.92;;;18.60;70.00;;;;;;5057404;28;20031;-61
2023/09/17 05:51:05;;;;;;;5.15;3.70;;;18.60;70.20;;;;;;5058340;28;20463;-62
2023/09/17 05:53:31;;;;;;;4.57;4.00;;;18.70;70.30;;;;;;5064797;28;20037;-61
2023/09/17 05:55:57;;;;;;;6.13;4.53;;;18.80;70.40;;;;;;5060859;28;20052;-61
2023/09/17 05:58:22;;;;;;;6.60;3.95;;;18.80;70.60;;;;;;5070242;28;20028;-60
2023/09/17 06:00:48;;;;;;;5.53;4.05;;;18.90;70.80;;;;;;5062436;28;20463;-61
2023/09/17 06:03:14;;;;;;;4.57;4.18;;;19.00;70.80;;;;;;5062928;28;20530;-60
2023/09/17 06:05:40;;;;;;;6.00;4.03;;;19.10;70.90;;;;;;5058524;28;20024;-62
2023/09/17 06:08:06;;;;;;;5.25;4.35;;;19.20;71.00;;;;;;5066129;28;20032;-61
2023/09/17 06:10:31;;;;;;;7.43;4.47;;;19.30;71.10;;;;;;5060966;28;20025;-61
2023/09/17 06:12:58;;;;;;;4.82;4.35;;;19.40;71.20;;;;;;5065226;28;20036;-60
2023/09/17 06:15:25;;;;;;;4.93;4.45;;;19.50;71.00;;;;;;5065559;28;20035;-61
2023/09/17 06:17:51;;;;;;;6.30;4.22;;;19.70;70.70;;;;;;5066734;28;20047;-61
2023/09/17 06:20:17;;;;;;;9.75;4.53;;;19.80;70.50;;;;;;5057259;28;20036;-61
2023/09/17 06:22:45;;;;;;;6.43;4.63;;;19.80;70.40;;;;;;5062350;28;20115;-62
2023/09/17 06:25:11;;;;;;;6.63;4.43;;;19.90;70.30;;;;;;5067671;28;20144;-62
2023/09/17 06:27:37;;;;;;;5.25;4.50;;;20.10;70.50;;;;;;5064007;28;20109;-61
2023/09/17 06:30:03;;;;;;;6.90;4.72;;;20.20;70.40;;;;;;5071983;28;20151;-61
2023/09/17 06:32:29;;;;;;;6.00;4.38;;;20.30;70.10;;;;;;5063277;28;20071;-62
2023/09/17 06:34:55;;;;;;;5.47;3.88;;;20.40;69.70;;;;;;5063736;28;20048;-62
2023/09/17 06:37:20;;;;;;;7.85;3.88;;;20.50;69.50;;;;;;5061156;28;20089;-61
2023/09/17 06:39:46;;;;;;;7.40;4.10;;;20.50;69.10;;;;;;5058781;28;20032;-61
2023/09/17 06:42:12;;;;;;;6.90;3.83;;;20.60;68.90;;;;;;5058743;28;20039;-61
2023/09/17 06:44:38;;;;;;;4.78;4.18;;;20.60;68.60;;;;;;5059561;28;20039;-61
2023/09/17 06:47:04;;;;;;;5.30;4.40;;;20.60;68.50;;;;;;5056616;28;20030;-61
2023/09/17 06:49:29;;;;;;;5.50;4.20;;;20.60;68.50;;;;;;5061195;28;20058;-61
2023/09/17 06:51:55;;;;;;;8.18;4.53;;;20.70;68.60;;;;;;5058157;28;20060;-61
2023/09/17 06:54:21;;;;;;;6.05;4.32;;;20.70;68.60;;;;;;5058187;28;20032;-61
2023/09/17 06:56:47;;;;;;;6.03;4.18;;;20.80;68.70;;;;;;5063509;28;20051;-61
2023/09/17 06:59:13;;;;;;;5.72;4.68;;;20.80;68.70;;;;;;5061217;28;20039;-62
2023/09/17 07:01:41;;;;;;;6.00;4.75;;;20.90;68.70;;;;;;5054969;28;20516;-61
2023/09/17 07:04:07;;;;;;;6.03;4.78;;;20.90;68.80;;;;;;5061499;28;20020;-61
2023/09/17 07:06:33;;;;;;;7.00;4.78;;;20.90;68.40;;;;;;5068245;28;20020;-61
2023/09/17 07:08:58;;;;;;;4.80;4.30;;;21.00;69.10;;;;;;5066798;28;20106;-61
2023/09/17 07:11:24;;;;;;;6.75;5.03;;;21.00;68.30;;;;;;5061457;28;20056;-61
2023/09/17 07:13:50;;;;;;;6.55;5.18;;;21.10;68.20;;;;;;5058227;28;20032;-62
2023/09/17 07:16:17;;;;;;;6.47;5.28;;;21.10;68.10;;;;;;5061445;28;20035;-62
2023/09/17 07:18:44;;;;;;;9.73;5.82;;;21.10;68.00;;;;;;5068525;28;20020;-62
2023/09/17 07:21:10;;;;;;;7.72;5.47;;;21.10;67.80;;;;;;5062324;28;20111;-62
2023/09/17 07:23:36;;;;;;;7.28;5.55;;;21.10;67.80;;;;;;5065465;28;20107;-61
2023/09/17 07:26:03;;;;;;;8.52;5.68;;;21.20;67.50;;;;;;5060371;28;20079;-62
2023/09/17 07:28:29;;;;;;;7.05;6.10;;;21.20;67.40;;;;;;5066382;28;20017;-62
2023/09/17 07:30:56;;;;;;;9.60;6.03;;;21.20;67.40;;;;;;5061353;28;20025;-61
2023/09/17 07:33:22;;;;;;;7.15;5.95;;;21.20;67.60;;;;;;5056738;28;20041;-62
2023/09/17 07:35:48;;;;;;;8.00;6.20;;;21.20;67.80;;;;;;5058823;28;20100;-61
2023/09/17 07:38:14;;;;;;;7.50;6.30;;;21.20;67.80;;;;;;5068183;28;20120;-61
2023/09/17 07:40:39;;;;;;;11.02;6.18;;;21.30;68.00;;;;;;5061161;28;20028;-61
2023/09/17 07:43:05;;;;;;;8.23;6.20;;;21.30;68.00;;;;;;5055895;28;20032;-61
2023/09/17 07:45:33;;;;;;;7.18;5.82;;;21.40;67.90;;;;;;5063045;28;20043;-61
2023/09/17 07:48:00;;;;;;;9.32;6.93;;;21.40;67.70;;;;;;5061620;28;20017;-62
2023/09/17 07:50:25;;;;;;;8.63;6.20;;;21.50;67.60;;;;;;5069757;28;20371;-62
2023/09/17 07:52:51;;;;;;;7.15;5.65;;;21.60;67.60;;;;;;5069120;28;20051;-61
2023/09/17 07:55:18;;;;;;;8.77;5.95;;;21.60;67.50;;;;;;5067232;28;20051;-61
2023/09/17 07:57:46;;;;;;;9.18;6.15;;;21.70;67.40;;;;;;5063835;28;20067;-60
2023/09/17 08:00:15;;;;;;;6.57;5.88;;;21.80;67.40;;;;;;5063575;28;20394;-62
2023/09/17 08:02:42;;;;;;;9.13;5.68;;;21.80;67.40;;;;;;5065249;28;20036;-61
2023/09/17 08:05:08;;;;;;;7.68;6.03;;;21.90;67.40;;;;;;5055388;28;20522;-61
2023/09/17 08:07:34;;;;;;;7.75;6.13;;;21.90;67.40;;;;;;5066039;28;20021;-60
2023/09/17 08:10:00;;;;;;;11.48;6.55;;;22.00;67.40;;;;;;5060379;28;20044;-61
2023/09/17 08:12:25;;;;;;;11.23;7.07;;;22.00;67.50;;;;;;5061255;28;20063;-63
2023/09/17 08:14:52;;;;;;;10.82;6.63;;;22.10;67.50;;;;;;5060884;28;20441;-62
2023/09/17 08:17:18;;;;;;;8.70;6.30;;;22.30;67.30;;;;;;5061383;28;20479;-61
2023/09/17 08:19:44;;;;;;;9.02;6.82;;;22.40;67.80;;;;;;5066003;28;20031;-62
2023/09/17 08:22:09;;;;;;;10.60;6.60;;;22.50;66.90;;;;;;5065798;28;20494;-62
2023/09/17 08:24:35;;;;;;;9.07;7.38;;;22.50;66.60;;;;;;5069216;28;20128;-62
2023/09/17 08:27:01;;;;;;;8.55;7.25;;;22.60;66.40;;;;;;5065570;28;20047;-61
2023/09/17 08:29:28;;;;;;;9.27;7.75;;;22.70;66.10;;;;;;5064053;28;20021;-61
2023/09/17 08:31:53;;;;;;;8.55;7.22;;;22.80;66.40;;;;;;5066833;28;20024;-61
2023/09/17 08:34:19;;;;;;;9.55;7.28;;;22.90;66.70;;;;;;5072028;28;20039;-62
2023/09/17 08:36:45;;;;;;;11.80;8.55;;;23.10;66.90;;;;;;5067440;28;20052;-61
2023/09/17 08:39:11;;;;;;;9.32;7.70;;;23.20;65.60;;;;;;5070389;28;20024;-62
2023/09/17 08:41:40;;;;;;;8.43;7.18;;;23.30;64.90;;;;;;5066660;28;20035;-62
2023/09/17 08:44:07;;;;;;;10.30;7.53;;;23.40;64.30;;;;;;5056334;28;20021;-61
2023/09/17 08:46:34;;;;;;;11.40;8.13;;;23.40;64.40;;;;;;5071494;28;20019;-62
2023/09/17 08:49:03;;;;;;;9.95;7.50;;;23.50;64.80;;;;;;5066782;28;20020;-62
2023/09/17 08:51:34;;;;;;;8.52;7.03;;;23.50;64.70;;;;;;5070984;28;20028;-62
2023/09/17 08:54:12;;;;;;;8.93;7.80;;;23.60;64.60;;;;;;5061281;28;20404;-61
2023/09/17 08:56:43;;;;;;;11.20;7.30;;;23.70;64.50;;;;;;5064813;28;20033;-60
2023/09/17 08:59:29;;;;;;;9.40;6.75;;;23.80;64.70;;;;;;5077549;28;20012;-61
2023/09/17 09:01:57;;;;;;;8.65;6.70;;;24.00;63.90;;;;;;5064708;28;20099;-61
2023/09/17 09:04:24;;;;;;;8.75;7.10;;;24.20;64.20;;;;;;5063831;28;20024;-61
2023/09/17 09:06:51;;;;;;;11.05;6.47;;;24.40;64.10;;;;;;5062570;28;20035;-62
2023/09/17 09:09:19;;;;;;;9.88;6.45;;;24.60;63.60;;;;;;5075933;28;20100;-62
2023/09/17 09:11:46;;;;;;;7.97;6.60;;;24.70;63.00;;;;;;5064397;28;20044;-62
2023/09/17 09:14:13;;;;;;;8.70;6.25;;;24.80;62.50;;;;;;5061119;28;20056;-62
2023/09/17 09:16:38;;;;;;;8.00;6.97;;;24.90;62.20;;;;;;5063737;28;20769;-61
2023/09/17 09:19:06;;;;;;;8.45;6.28;;;25.00;61.70;;;;;;5059585;28;20087;-61
2023/09/17 09:21:31;;;;;;;10.35;7.22;;;25.00;61.30;;;;;;5065607;28;20082;-63
2023/09/17 09:23:57;;;;;;;7.75;6.50;;;25.10;61.20;;;;;;5064319;28;20040;-61
2023/09/17 09:26:40;;;;;;;7.07;5.82;;;25.10;61.20;;;;;;5060311;28;20230;-61
2023/09/17 09:29:06;;;;;;;7.93;6.20;;;25.20;60.70;;;;;;5064526;28;20094;-61
2023/09/17 09:31:33;;;;;;;15.40;6.25;;;25.30;61.20;;;;;;5063967;28;20025;-61
2023/09/17 09:34:01;;;;;;;7.70;6.30;;;25.40;60.90;;;;;;5072475;28;20029;-61
2023/09/17 09:36:28;;;;;;;7.25;5.65;;;25.50;60.70;;;;;;5064268;28;20349;-63
2023/09/17 09:38:57;;;;;;;6.45;5.43;;;25.60;60.80;;;;;;5067933;28;20098;-62
2023/09/17 09:41:29;;;;;;;8.00;6.20;;;25.80;60.50;;;;;;5072995;28;20499;-62
2023/09/17 09:43:56;;;;;;;7.85;6.07;;;25.90;60.30;;;;;;5072442;28;20013;-62
2023/09/17 09:46:24;;;;;;;10.63;6.40;;;26.10;60.40;;;;;;4987506;28;20035;-62
2023/09/17 09:48:51;;;;;;;9.25;5.88;;;26.30;60.10;;;;;;5068617;28;20066;-62
2023/09/17 09:51:18;;;;;;;6.00;5.10;;;26.40;59.60;;;;;;5064267;28;20024;-61
2023/09/17 09:53:44;;;;;;;5.93;4.93;;;26.60;59.00;;;;;;5067229;28;20029;-61
2023/09/17 09:56:11;;;;;;;6.68;4.80;;;26.70;58.60;;;;;;5064962;28;20520;-62
2023/09/17 09:58:39;;;;;;;7.85;4.63;;;26.80;58.50;;;;;;5075198;28;20030;-62
2023/09/17 10:01:05;;;;;;;6.80;4.95;;;26.90;58.30;;;;;;5069165;28;20467;-62
2023/09/17 10:03:31;;;;;;;9.80;4.78;;;27.10;58.10;;;;;;5059520;28;20549;-62
2023/09/17 10:06:06;;;;;;;7.50;4.38;;;27.20;57.80;;;;;;5066523;28;20577;-62
2023/09/17 10:08:37;;;;;;;4.63;4.10;;;27.30;57.10;;;;;;5067525;28;20035;-63
2023/09/17 10:11:05;;;;;;;9.50;4.63;;;27.40;57.70;;;;;;5064226;28;20031;-62
2023/09/17 10:13:32;;;;;;;4.80;3.88;;;27.60;57.20;;;;;;5073172;28;20055;-62
2023/09/17 10:15:58;;;;;;;7.25;4.40;;;27.70;56.90;;;;;;5071122;28;20032;-61
2023/09/17 10:18:27;;;;;;;6.70;4.50;;;27.80;56.70;;;;;;5067610;28;20021;-61
2023/09/17 10:20:54;;;;;;;4.55;3.95;;;27.90;56.40;;;;;;5063890;28;20055;-62
2023/09/17 10:23:21;;;;;;;10.57;5.00;;;28.00;55.80;;;;;;5062623;28;20024;-62
2023/09/17 10:25:48;;;;;;;8.63;4.40;;;28.10;55.90;;;;;;5057868;28;20094;-62
2023/09/17 10:28:16;;;;;;;5.72;4.05;;;28.10;55.70;;;;;;5066528;28;20029;-61
2023/09/17 10:30:44;;;;;;;3.38;3.08;;;28.30;55.20;;;;;;5057805;28;20036;-62
2023/09/17 10:33:11;;;;;;;8.60;4.05;;;28.30;55.60;;;;;;5066943;28;20043;-61
2023/09/17 10:35:39;;;;;;;4.30;3.90;;;28.40;54.90;;;;;;5071637;28;20035;-62
2023/09/17 10:38:07;;;;;;;5.28;3.83;;;28.60;55.00;;;;;;5057617;28;20035;-61
2023/09/17 10:40:35;;;;;;;4.00;3.13;;;28.70;54.60;;;;;;5066958;28;20032;-61
2023/09/17 10:43:02;;;;;;;5.35;3.60;;;28.80;55.30;;;;;;5069502;28;20029;-61
2023/09/17 10:45:34;;;;;;;6.03;2.58;;;28.80;54.50;;;;;;4990082;28;20411;-61
2023/09/17 10:48:02;;;;;;;4.00;2.83;;;28.90;53.20;;;;;;5063328;28;20028;-61
2023/09/17 10:50:29;;;;;;;3.85;2.55;;;29.00;53.30;;;;;;5064653;28;20028;-61
2023/09/17 10:52:54;;;;;;;4.25;2.78;;;29.10;53.30;;;;;;5061559;28;20040;-62
2023/09/17 10:55:22;;;;;;;4.45;2.85;;;29.20;53.20;;;;;;5061626;28;20024;-63
2023/09/17 10:57:56;;;;;;;2.72;2.53;;;29.30;52.60;;;;;;5064005;28;20380;-61
2023/09/17 11:00:23;;;;;;;7.20;2.80;;;29.40;51.70;;;;;;5063213;28;20113;-63
2023/09/17 11:02:57;;;;;;;3.60;2.50;;;29.40;52.40;;;;;;5064478;28;20048;-62
2023/09/17 11:05:24;;;;;;;;;;;29.50;51.70;;;;;;5066729;28;20069;-62
2023/09/17 11:07:55;;;;;;;4.32;2.33;;;29.60;52.10;;;;;;5064918;28;19908;-62
2023/09/17 11:10:21;;;;;;;8.60;1.98;;;29.70;51.80;;;;;;5063378;28;20108;-62
2023/09/17 11:12:48;;;;;;;2.63;2.00;;;29.70;51.40;;;;;;5065621;28;20104;-62
2023/09/17 11:15:13;;;;;;;4.75;1.92;;;29.80;50.70;;;;;;5059474;28;20040;-61
2023/09/17 11:17:40;;;;;;;2.97;1.90;;;29.90;50.20;;;;;;5063195;28;20029;-61
2023/09/17 11:20:13;;;;;;;2.72;2.00;;;29.90;50.20;;;;;;5061550;28;20484;-62
2023/09/17 11:22:40;;;;;;;4.40;1.80;;;30.00;49.30;;;;;;5057954;28;20482;-62
2023/09/17 11:25:08;;;;;;;2.83;1.75;;;30.10;49.40;;;;;;5059962;28;20027;-62
2023/09/17 11:27:50;;;;;;;4.38;1.70;;;30.20;49.10;;;;;;5062218;28;20072;-62
2023/09/17 11:30:17;;;;;;;3.13;1.50;;;30.30;47.50;;;;;;5060207;28;20033;-61
2023/09/17 11:32:53;;;;;;;3.63;2.00;;;30.40;48.50;;;;;;5058122;28;20043;-63
2023/09/17 11:35:23;;;;;;;2.50;1.77;;;30.40;47.20;;;;;;5053671;28;20039;-62
2023/09/17 11:37:50;;;;;;;3.05;1.70;;;30.50;47.60;;;;;;5052173;28;20025;-62
2023/09/17 11:40:18;;;;;;;3.53;1.80;;;30.60;48.10;;;;;;5063504;28;20047;-63
2023/09/17 11:42:45;;;;;;;4.47;1.73;;;30.60;47.60;;;;;;5063220;28;20441;-62
2023/09/17 11:45:11;;;;;;;2.50;1.30;;;30.70;47.60;;;;;;4949890;28;20091;-63
2023/09/17 11:47:38;;;;;;;4.03;1.80;;;30.70;47.40;;;;;;5057137;28;20075;-62
2023/09/17 11:50:07;;;;;;;3.45;1.50;;;30.80;47.60;;;;;;5072301;28;20111;-62
2023/09/17 11:52:33;;;;;;;5.78;1.80;;;30.90;47.60;;;;;;5073152;28;20041;-64
2023/09/17 11:55:03;;;;;;;5.28;1.83;;;31.00;47.00;;;;;;5065409;28;21639;-63
2023/09/17 11:57:30;;;;;;;11.65;1.67;;;31.00;46.50;;;;;;5067570;28;20036;-62
2023/09/17 11:59:57;;;;;;;3.03;1.60;;;31.10;46.60;;;;;;5061591;28;20527;-62
2023/09/17 12:02:23;;;;;;;4.18;2.03;;;31.20;46.20;;;;;;5059302;28;20060;-62
2023/09/17 12:04:51;;;;;;;4.05;1.65;;;31.40;46.10;;;;;;5064381;28;20058;-61
2023/09/17 12:07:17;;;;;;;5.10;1.48;;;31.40;45.30;;;;;;5064444;28;20060;-62
2023/09/17 12:12:11;;;;;;;4.03;2.38;;;31.60;44.70;;;;;;5071102;28;20123;-62
2023/09/17 12:14:37;;;;;;;3.72;1.50;;;31.70;45.00;;;;;;5069897;28;20493;-62
2023/09/17 12:17:03;;;;;;;5.70;3.10;;;31.80;44.80;;;;;;5071157;28;20024;-62
2023/09/17 12:19:29;;;;;;;3.90;1.80;;;31.90;44.10;;;;;;5070723;28;20462;-63
2023/09/17 12:21:58;;;;;;;7.95;1.85;;;32.00;44.30;;;;;;5070721;28;20383;-63
2023/09/17 12:24:34;;;;;;;5.28;1.30;;;32.10;43.90;;;;;;5054529;28;20118;-63
2023/09/17 12:29:38;;;;;;;8.90;1.60;;;32.30;43.10;;;;;;5058780;28;20075;-62
2023/09/17 12:32:04;;;;;;;3.00;1.10;;;32.40;41.90;;;;;;5071054;28;20115;-62
2023/09/17 12:34:33;;;;;;;6.70;2.03;;;32.40;42.70;;;;;;5067681;28;20526;-62
2023/09/17 12:36:59;;;;;;;3.78;1.80;;;32.50;42.80;;;;;;5062711;28;20029;-62
2023/09/17 12:39:25;;;;;;;8.75;1.90;;;32.50;42.40;;;;;;5068162;28;20162;-62
2023/09/17 12:41:50;;;;;;;4.03;1.45;;;32.60;42.10;;;;;;5061703;28;20047;-63
2023/09/17 12:44:29;;;;;;;3.05;1.30;;;32.60;42.70;;;;;;5061484;28;20403;-62
2023/09/17 12:46:55;;;;;;;12.95;7.82;;;32.70;41.60;;;;;;5076328;28;20059;-62
2023/09/17 12:49:22;;;;;;;7.53;2.97;;;32.70;41.60;;;;;;5070218;28;20032;-61